Fort Smith Regional Airport Fort Smith US
ICAO: KFSM
IATA: FSM
Category: Large
Scheduled Services: Yes

Elevation: 469 ft
TransAlt. 18000 ft.

Airport Communications:
RAZORBACK APP:35.357
RAZORBACK APP:120.175
ATIS:126.3
CLNC DEL:133.85
CTAF:118.3
RAZORBACK DEP:120.9
GND:121.9
JONESBORO RDO:122.2
TWR:118.3
UNICOM:122.95

KFSM Zoom In..

If Map Doesn't Load, Click Here

Runways:

(A) RW 01 length 5001 ft width 150 ft
---- / hdg 16

(B) RW 07 length 8017 ft width 150 ft
ILS 111.30 / hdg 76

(C) RW 19 length 5001 ft width 150 ft
---- / hdg 196

(D) RW 25 length 8017 ft width 150 ft
ILS 111.30 / hdg 256

Location; KFSM
Day. 26 / Time. 09.53 Zulu
* Altimeter: 30.05
* Temperature: 20° c. 68°f.
* Wind from: 350° Speed 08 kn.
Dewpoint: 17° c.
Visibility: 10 Statute Miles.
Clouds: Scattered 1300 ft.
Clouds: Overcast 2500 ft.

KFSM 260953Z AUTO 35008KT 10SM SCT013 OVC025 20/17 A3005 RMK AO2 SLP171 T02000172


Wind From 350°
Speed 08 kn.

 
 
jpsmedia.com for Web Design worldairports.se 2018   terms of use